Time;durP1;ratioP1;P1;durP2;ratioP2;P2;SDS_P1;SDS_P2;PMS_P1;PMS_P2;Temp;Humidity;BMP_temperature;BMP_pressure;BME280_temperature;BME280_humidity;BME280_pressure;Samples;Min_cycle;Max_cycle;Signal;HPM_P1;HPM_P2
2022/03/18 00:00:21;;;;;;;11.45;5.80;;;2.10;99.90;;;;;;5121725;27;20057;-78
2022/03/18 00:02:53;;;;;;;19.42;6.30;;;2.10;99.90;;;;;;5156970;27;20077;-78
2022/03/18 00:05:19;;;;;;;18.33;6.28;;;2.10;99.90;;;;;;5157193;27;20074;-77
2022/03/18 00:07:45;;;;;;;13.52;5.63;;;2.10;99.90;;;;;;5156747;27;20082;-76
2022/03/18 00:10:12;;;;;;;14.13;5.30;;;2.10;99.90;;;;;;5156657;27;20113;-77
2022/03/18 00:12:37;;;;;;;16.40;5.57;;;2.00;99.90;;;;;;5156654;27;20042;-77
2022/03/18 00:15:05;;;;;;;11.95;5.07;;;2.10;99.90;;;;;;5156649;27;20076;-77
2022/03/18 00:17:31;;;;;;;11.88;5.10;;;2.00;99.90;;;;;;5156785;27;20042;-77
2022/03/18 00:19:56;;;;;;;12.60;5.25;;;2.00;99.90;;;;;;5156717;27;20035;-77
2022/03/18 00:22:22;;;;;;;15.18;5.03;;;2.00;99.90;;;;;;5156528;27;20038;-77
2022/03/18 00:24:47;;;;;;;9.85;5.50;;;2.00;99.90;;;;;;5156597;27;20049;-78
2022/03/18 00:27:13;;;;;;;13.20;5.55;;;2.00;99.90;;;;;;5156763;27;20042;-77
2022/03/18 00:29:39;;;;;;;10.07;5.40;;;2.00;99.90;;;;;;5137167;27;20042;-77
2022/03/18 00:32:04;;;;;;;18.63;6.22;;;2.00;99.90;;;;;;5156170;27;20038;-77
2022/03/18 00:34:30;;;;;;;13.25;5.32;;;2.00;99.90;;;;;;5156210;27;20047;-77
2022/03/18 00:36:56;;;;;;;15.98;5.68;;;1.90;99.90;;;;;;5156164;27;20482;-78
2022/03/18 00:39:21;;;;;;;11.35;6.43;;;1.80;99.90;;;;;;5120891;27;20038;-78
2022/03/18 00:41:47;;;;;;;13.82;5.93;;;1.80;99.90;;;;;;5156541;27;20041;-77
2022/03/18 00:44:14;;;;;;;18.80;6.45;;;1.70;99.90;;;;;;5156086;27;20045;-77
2022/03/18 00:46:40;;;;;;;15.45;6.18;;;1.70;99.90;;;;;;5137760;27;20042;-78
2022/03/18 00:52:06;;;;;;;12.55;5.53;;;1.70;99.90;;;;;;5137420;27;20130;-78
2022/03/18 00:54:36;;;;;;;9.98;5.15;;;1.70;99.90;;;;;;5156019;27;20054;-78
2022/03/18 00:57:04;;;;;;;15.45;5.70;;;1.70;99.90;;;;;;5155999;27;20047;-78
2022/03/18 00:59:30;;;;;;;13.60;5.20;;;1.70;99.90;;;;;;5156157;27;20047;-78
2022/03/18 01:01:57;;;;;;;10.20;5.00;;;1.80;99.90;;;;;;5155947;27;20043;-77
2022/03/18 01:04:23;;;;;;;11.02;5.50;;;1.70;99.90;;;;;;5155861;27;20802;-78
2022/03/18 01:06:50;;;;;;;15.80;5.97;;;1.70;99.90;;;;;;5156424;27;20042;-78
2022/03/18 01:09:16;;;;;;;13.63;5.38;;;1.60;99.90;;;;;;5155787;27;20043;-78
2022/03/18 01:11:42;;;;;;;12.98;5.57;;;1.60;99.90;;;;;;5155715;27;20057;-77
2022/03/18 01:14:08;;;;;;;13.23;6.00;;;1.60;99.90;;;;;;5155815;27;20038;-77
2022/03/18 01:16:34;;;;;;;8.50;5.45;;;1.60;99.90;;;;;;5157953;27;20098;-77
2022/03/18 01:18:59;;;;;;;18.42;5.80;;;1.50;99.90;;;;;;5160076;27;20039;-77
2022/03/18 01:21:25;;;;;;;11.00;5.18;;;1.50;99.90;;;;;;5155670;27;20053;-77
2022/03/18 01:23:51;;;;;;;11.70;5.30;;;1.50;99.90;;;;;;5137248;27;20474;-77
2022/03/18 01:26:17;;;;;;;13.73;4.70;;;1.50;99.90;;;;;;5137439;27;20428;-78
2022/03/18 01:28:42;;;;;;;13.10;5.82;;;1.50;99.90;;;;;;5155579;27;20058;-78
2022/03/18 01:31:08;;;;;;;11.10;5.18;;;1.40;99.90;;;;;;5137075;27;20367;-77
2022/03/18 01:33:35;;;;;;;12.23;5.32;;;1.40;99.90;;;;;;5155311;27;20043;-77
2022/03/18 01:36:01;;;;;;;15.20;5.78;;;1.40;99.90;;;;;;5136956;27;20035;-77
2022/03/18 01:38:27;;;;;;;15.05;5.03;;;1.30;99.90;;;;;;5155061;27;20166;-77
2022/03/18 01:40:53;;;;;;;15.15;5.18;;;1.30;99.90;;;;;;5158544;27;20048;-77
2022/03/18 01:43:19;;;;;;;14.40;5.93;;;1.30;99.90;;;;;;5159552;27;20039;-77
2022/03/18 01:45:45;;;;;;;12.27;5.55;;;1.30;99.90;;;;;;5159602;27;20047;-77
2022/03/18 01:48:10;;;;;;;12.38;6.32;;;1.30;99.90;;;;;;5141185;27;20087;-77
2022/03/18 01:50:40;;;;;;;12.63;5.43;;;1.20;99.90;;;;;;5159438;27;20051;-78
2022/03/18 01:53:06;;;;;;;14.73;5.82;;;1.30;99.90;;;;;;5159402;27;20122;-77
2022/03/18 01:55:32;;;;;;;15.85;5.65;;;1.20;99.90;;;;;;5159346;27;20074;-77
2022/03/18 01:57:57;;;;;;;9.88;5.50;;;1.20;99.90;;;;;;5159239;27;20453;-78
2022/03/18 02:00:24;;;;;;;10.82;5.63;;;1.20;99.90;;;;;;5159295;27;20039;-76
2022/03/18 02:02:50;;;;;;;12.35;5.90;;;1.20;99.90;;;;;;5159144;27;20046;-77
2022/03/18 02:05:17;;;;;;;13.98;6.40;;;1.30;99.90;;;;;;5159605;27;20046;-76
2022/03/18 02:07:44;;;;;;;;;;;1.30;99.90;;;;;;5159508;27;20046;-77
2022/03/18 02:10:09;;;;;;;11.55;5.43;;;1.20;99.90;;;;;;5140633;27;19926;-77
2022/03/18 02:12:35;;;;;;;15.18;6.20;;;1.20;99.90;;;;;;5159292;27;20055;-77
2022/03/18 02:15:02;;;;;;;13.73;6.43;;;1.20;99.90;;;;;;5159213;27;20069;-77
2022/03/18 02:17:27;;;;;;;18.25;5.93;;;1.20;99.90;;;;;;5159066;27;20039;-77
2022/03/18 02:19:53;;;;;;;15.55;6.57;;;1.20;99.90;;;;;;5159055;27;20051;-77
2022/03/18 02:22:21;;;;;;;10.05;6.03;;;1.20;99.90;;;;;;5123526;27;20035;-77
2022/03/18 02:24:49;;;;;;;13.77;6.65;;;1.10;99.90;;;;;;5158951;27;20039;-77
2022/03/18 02:27:15;;;;;;;11.82;6.13;;;1.10;99.90;;;;;;5140378;27;20051;-77
2022/03/18 02:29:42;;;;;;;13.70;5.93;;;1.10;99.90;;;;;;5158887;27;20503;-77
2022/03/18 02:32:08;;;;;;;13.60;6.30;;;1.10;99.90;;;;;;5158607;27;20142;-77
2022/03/18 02:34:36;;;;;;;13.68;6.43;;;1.10;99.90;;;;;;5123700;27;20054;-77
2022/03/18 02:37:02;;;;;;;9.90;5.72;;;1.10;99.90;;;;;;5158837;27;20046;-77
2022/03/18 02:39:27;;;;;;;14.65;6.18;;;1.10;99.90;;;;;;5140688;27;20386;-77
2022/03/18 02:41:54;;;;;;;15.00;6.13;;;1.10;99.90;;;;;;5140445;27;20047;-77
2022/03/18 02:44:20;;;;;;;;;;;1.10;99.90;;;;;;5158991;27;20126;-77
2022/03/18 02:46:45;;;;;;;16.67;6.53;;;1.10;99.90;;;;;;5158469;27;20010;-77
2022/03/18 02:49:11;;;;;;;13.93;5.53;;;1.10;99.90;;;;;;5158411;27;20043;-79
2022/03/18 02:51:39;;;;;;;19.63;6.13;;;1.00;99.90;;;;;;5122176;27;20142;-77
2022/03/18 02:54:06;;;;;;;15.82;5.78;;;1.00;99.90;;;;;;5158393;27;20082;-79
2022/03/18 02:56:32;;;;;;;17.20;5.93;;;1.00;99.90;;;;;;5122911;27;20042;-78
2022/03/18 02:59:00;;;;;;;13.57;6.38;;;1.00;99.90;;;;;;5158813;27;20605;-77
2022/03/18 03:01:27;;;;;;;11.95;5.82;;;0.90;99.90;;;;;;5158072;27;20053;-77
2022/03/18 03:03:52;;;;;;;13.95;6.53;;;0.90;99.90;;;;;;5139988;27;20038;-77
2022/03/18 03:09:02;;;;;;;10.43;5.82;;;0.90;99.90;;;;;;5158224;27;20054;-78
2022/03/18 03:11:28;;;;;;;14.88;6.53;;;0.90;99.90;;;;;;5158360;27;20051;-77
2022/03/18 03:13:54;;;;;;;11.57;5.68;;;0.90;99.90;;;;;;5157974;27;20568;-78
2022/03/18 03:16:20;;;;;;;17.88;6.40;;;0.90;99.90;;;;;;5157945;27;20125;-77
2022/03/18 03:18:46;;;;;;;20.75;6.25;;;0.90;99.90;;;;;;5157873;27;20042;-77
2022/03/18 03:21:13;;;;;;;10.90;5.10;;;0.80;99.90;;;;;;5157634;27;20046;-77
2022/03/18 03:23:39;;;;;;;9.77;5.43;;;0.80;99.90;;;;;;5122340;27;20046;-77
2022/03/18 03:26:05;;;;;;;16.58;6.45;;;0.70;99.90;;;;;;5157847;27;20114;-77
2022/03/18 03:28:30;;;;;;;15.27;5.90;;;0.80;99.90;;;;;;5157588;27;20039;-77
2022/03/18 03:30:56;;;;;;;18.10;6.30;;;;;;;;;;5140109;27;20137;-77
2022/03/18 03:33:22;;;;;;;11.68;5.78;;;0.70;99.90;;;;;;5139129;27;20046;-77
2022/03/18 03:35:47;;;;;;;14.38;5.88;;;0.80;99.90;;;;;;5157540;27;20049;-77
2022/03/18 03:38:14;;;;;;;15.02;6.68;;;0.70;99.90;;;;;;5157562;27;20042;-77
2022/03/18 03:40:40;;;;;;;10.98;6.00;;;0.70;99.90;;;;;;5139270;27;20047;-77
2022/03/18 03:43:08;;;;;;;8.57;5.47;;;0.70;99.90;;;;;;5139001;27;20099;-77
2022/03/18 03:45:35;;;;;;;12.25;5.45;;;0.70;99.90;;;;;;5122202;27;20280;-77
2022/03/18 03:48:01;;;;;;;;;;;0.70;99.90;;;;;;5157810;27;20043;-77
2022/03/18 03:50:27;;;;;;;11.30;5.53;;;0.70;99.90;;;;;;5157072;27;20328;-78
2022/03/18 03:52:53;;;;;;;13.07;5.40;;;0.70;99.90;;;;;;5157137;27;20038;-77
2022/03/18 03:55:19;;;;;;;14.85;5.22;;;0.70;99.90;;;;;;5138900;27;20046;-77
2022/03/18 03:57:44;;;;;;;13.25;6.55;;;0.70;99.90;;;;;;5138750;27;20053;-77
2022/03/18 04:00:12;;;;;;;18.35;6.13;;;0.70;99.90;;;;;;5157418;27;20042;-78
2022/03/18 04:02:38;;;;;;;12.25;5.65;;;0.60;99.90;;;;;;5157286;27;20098;-78
2022/03/18 04:05:07;;;;;;;11.90;5.95;;;0.60;99.90;;;;;;5157635;27;20050;-78
2022/03/18 04:07:41;;;;;;;10.68;5.65;;;0.60;99.90;;;;;;5140845;27;20042;-77
2022/03/18 04:10:09;;;;;;;12.40;6.97;;;0.60;99.90;;;;;;5163782;27;20062;-77
2022/03/18 04:12:35;;;;;;;22.77;6.68;;;0.60;99.90;;;;;;5165758;27;20107;-76
2022/03/18 04:15:05;;;;;;;11.40;5.75;;;0.60;99.90;;;;;;5158917;27;20042;-78
2022/03/18 04:17:43;;;;;;;12.98;5.60;;;0.60;99.90;;;;;;5156797;27;20523;-78
2022/03/18 04:20:09;;;;;;;;;;;0.20;99.90;;;;;;5140102;27;20046;-77
2022/03/18 04:22:36;;;;;;;11.82;5.70;;;0.70;99.90;;;;;;5145885;27;19926;-77
2022/03/18 04:25:01;;;;;;;13.65;5.78;;;0.60;99.90;;;;;;5139744;27;20364;-78
2022/03/18 04:27:27;;;;;;;13.73;6.85;;;0.60;99.90;;;;;;5138008;27;20042;-78
2022/03/18 04:29:53;;;;;;;15.00;5.85;;;0.60;99.90;;;;;;5156809;27;20046;-78
2022/03/18 04:32:19;;;;;;;15.47;5.93;;;0.50;99.90;;;;;;5137865;27;20390;-78
2022/03/18 04:34:44;;;;;;;14.95;6.13;;;0.60;99.90;;;;;;5156460;27;20042;-78
2022/03/18 04:37:10;;;;;;;13.90;5.97;;;0.60;99.90;;;;;;5156326;27;20447;-77
2022/03/18 04:39:36;;;;;;;11.52;5.53;;;0.60;99.90;;;;;;5120628;27;20042;-78
2022/03/18 04:42:01;;;;;;;13.65;5.97;;;0.60;99.90;;;;;;5156519;27;20046;-77
2022/03/18 04:44:27;;;;;;;13.98;5.82;;;0.60;99.90;;;;;;5156059;27;20078;-77
2022/03/18 04:46:52;;;;;;;10.68;5.47;;;0.50;99.90;;;;;;5137655;27;20046;-77
2022/03/18 04:49:18;;;;;;;11.55;5.88;;;0.50;99.90;;;;;;5155582;27;20049;-77
2022/03/18 04:51:43;;;;;;;9.48;5.70;;;0.50;99.90;;;;;;5155943;27;20522;-77
2022/03/18 04:54:09;;;;;;;13.02;5.95;;;0.60;99.90;;;;;;5155935;27;20047;-78
2022/03/18 04:59:19;;;;;;;15.60;6.38;;;0.40;99.90;;;;;;5138159;27;20496;-77
2022/03/18 05:01:46;;;;;;;13.65;6.15;;;0.40;99.90;;;;;;5156124;27;20043;-78
2022/03/18 05:04:12;;;;;;;15.13;6.18;;;0.40;99.90;;;;;;5155982;27;20073;-78
2022/03/18 05:06:38;;;;;;;12.85;6.43;;;0.40;99.90;;;;;;5155784;27;20462;-77
2022/03/18 05:09:04;;;;;;;11.20;6.30;;;0.50;99.90;;;;;;5137174;27;20050;-79
2022/03/18 05:11:29;;;;;;;13.15;5.85;;;0.40;99.90;;;;;;5156032;27;20131;-77
2022/03/18 05:13:56;;;;;;;12.40;6.53;;;0.40;99.90;;;;;;5155508;27;20478;-77
2022/03/18 05:16:21;;;;;;;13.25;6.50;;;0.40;99.90;;;;;;5155335;27;20371;-77
2022/03/18 05:18:47;;;;;;;16.60;6.85;;;0.40;99.90;;;;;;5136868;27;20050;-77
2022/03/18 05:21:12;;;;;;;12.98;6.55;;;0.40;99.90;;;;;;5137116;27;20046;-78
2022/03/18 05:23:38;;;;;;;13.32;5.93;;;0.40;99.90;;;;;;5155566;27;20098;-77
2022/03/18 05:26:03;;;;;;;14.93;6.15;;;0.40;99.90;;;;;;5137319;27;20054;-77
2022/03/18 05:28:30;;;;;;;13.95;6.47;;;0.40;99.90;;;;;;5155424;27;20050;-77
2022/03/18 05:30:57;;;;;;;14.77;6.95;;;0.60;99.90;;;;;;5136965;27;20054;-79
2022/03/18 05:33:23;;;;;;;12.77;6.55;;;0.40;99.90;;;;;;5155222;27;20126;-78
2022/03/18 05:35:49;;;;;;;12.35;6.40;;;0.40;99.90;;;;;;5155238;27;20078;-78
2022/03/18 05:38:14;;;;;;;14.55;6.80;;;0.40;99.90;;;;;;5155159;27;20466;-78
2022/03/18 05:40:41;;;;;;;13.50;6.40;;;0.30;99.90;;;;;;5136859;27;20043;-78
2022/03/18 05:43:07;;;;;;;14.60;6.65;;;0.30;99.90;;;;;;5155171;27;20046;-77
2022/03/18 05:45:33;;;;;;;14.50;6.40;;;0.40;99.90;;;;;;5155155;27;20493;-77
2022/03/18 05:47:59;;;;;;;10.70;6.18;;;0.40;99.90;;;;;;5155206;27;20039;-76
2022/03/18 05:50:25;;;;;;;18.88;7.00;;;0.40;99.90;;;;;;5155188;27;20038;-76
2022/03/18 05:52:51;;;;;;;10.33;7.03;;;0.40;99.90;;;;;;5155064;27;20074;-76
2022/03/18 05:55:16;;;;;;;13.00;6.30;;;0.40;99.90;;;;;;5155120;27;20706;-75
2022/03/18 05:57:42;;;;;;;12.75;7.07;;;0.40;99.90;;;;;;5154906;27;20125;-75
2022/03/18 06:00:08;;;;;;;13.23;6.55;;;0.40;99.90;;;;;;5154850;27;20502;-75
2022/03/18 06:02:34;;;;;;;16.70;6.40;;;0.40;99.90;;;;;;5136557;27;20043;-75
2022/03/18 06:05:01;;;;;;;13.48;7.13;;;0.40;99.90;;;;;;5155010;27;20049;-76
2022/03/18 06:07:26;;;;;;;13.70;6.45;;;0.40;99.90;;;;;;5154943;27;20082;-76
2022/03/18 06:12:37;;;;;;;11.43;6.45;;;0.40;99.90;;;;;;5139342;27;20390;-77
2022/03/18 06:15:03;;;;;;;16.40;6.40;;;0.50;99.90;;;;;;5155181;27;20125;-76
2022/03/18 06:17:29;;;;;;;14.98;7.00;;;0.50;99.90;;;;;;5136397;27;20043;-75
2022/03/18 06:19:54;;;;;;;18.08;8.23;;;0.60;99.90;;;;;;5154957;27;20050;-76
2022/03/18 06:22:20;;;;;;;13.32;7.35;;;0.60;99.90;;;;;;5154852;27;20084;-75
2022/03/18 06:24:45;;;;;;;11.35;7.45;;;0.60;99.90;;;;;;5154874;27;20042;-77
2022/03/18 06:27:11;;;;;;;17.40;7.05;;;0.70;99.90;;;;;;5139212;27;20125;-77
2022/03/18 06:29:37;;;;;;;18.40;7.55;;;0.70;99.90;;;;;;5159062;27;20046;-77
2022/03/18 06:32:03;;;;;;;18.85;7.63;;;0.80;99.90;;;;;;5158659;27;20078;-77
2022/03/18 06:34:29;;;;;;;19.67;8.57;;;0.80;99.90;;;;;;5140010;27;20069;-75
2022/03/18 06:36:57;;;;;;;18.15;9.40;;;0.10;99.90;;;;;;5158570;27;20474;-76
2022/03/18 06:39:24;;;;;;;15.15;8.57;;;0.90;99.90;;;;;;5158603;27;20047;-80
2022/03/18 06:41:50;;;;;;;18.23;9.95;;;1.00;99.90;;;;;;5158434;27;20047;-76
2022/03/18 06:44:16;;;;;;;21.55;9.25;;;1.10;99.90;;;;;;5158639;27;20179;-75
2022/03/18 06:46:41;;;;;;;20.15;8.75;;;1.10;99.90;;;;;;5158147;27;20031;-76
2022/03/18 06:49:07;;;;;;;15.85;8.88;;;1.20;99.90;;;;;;5140081;27;20035;-75
2022/03/18 06:51:34;;;;;;;21.00;9.35;;;1.30;99.90;;;;;;5158867;27;20046;-78
2022/03/18 06:54:00;;;;;;;25.20;8.70;;;1.40;99.90;;;;;;5158159;27;20035;-76
2022/03/18 06:56:27;;;;;;;16.50;8.40;;;1.50;99.90;;;;;;5158258;27;20042;-76
2022/03/18 06:58:53;;;;;;;18.42;9.75;;;1.70;99.90;;;;;;5139972;27;20042;-76
2022/03/18 07:01:21;;;;;;;20.23;9.57;;;1.60;99.90;;;;;;5140540;27;20038;-77
2022/03/18 07:03:49;;;;;;;;;;;1.80;99.90;;;;;;5141446;27;20130;-76
2022/03/18 07:06:15;;;;;;;20.88;9.50;;;1.90;99.90;;;;;;5139788;27;19923;-77
2022/03/18 07:08:40;;;;;;;22.05;9.30;;;1.90;99.90;;;;;;5139634;27;20501;-75
2022/03/18 07:11:07;;;;;;;20.95;9.25;;;2.10;99.90;;;;;;5157686;27;20095;-77
2022/03/18 07:13:33;;;;;;;18.13;9.47;;;2.20;99.90;;;;;;5157990;27;20122;-75
2022/03/18 07:17:54;;;;;;;23.70;9.98;;;2.30;99.90;;;;;;5157840;27;20439;-76
2022/03/18 07:18:45;;;;;;;18.70;9.60;;;2.40;99.90;;;;;;5158553;27;20133;-77
2022/03/18 07:21:10;;;;;;;21.33;9.70;;;2.60;99.90;;;;;;5144919;27;20439;-77
2022/03/18 07:23:36;;;;;;;23.65;10.05;;;2.60;99.90;;;;;;5156113;27;20039;-76
2022/03/18 07:26:02;;;;;;;20.67;9.32;;;2.80;99.90;;;;;;5157509;27;20043;-78
2022/03/18 07:28:27;;;;;;;19.30;9.98;;;2.90;99.90;;;;;;5157654;27;20035;-75
2022/03/18 07:30:53;;;;;;;19.83;9.15;;;3.10;99.90;;;;;;5139086;27;20054;-73
2022/03/18 07:33:18;;;;;;;16.92;9.80;;;3.20;99.90;;;;;;5156900;27;20034;-74
2022/03/18 07:35:44;;;;;;;16.75;8.77;;;3.30;99.90;;;;;;5157321;27;20493;-76
2022/03/18 07:38:10;;;;;;;16.88;9.93;;;3.50;99.90;;;;;;5156444;27;20398;-75
2022/03/18 07:40:39;;;;;;;15.43;8.27;;;3.60;99.90;;;;;;5157465;27;20081;-76
2022/03/18 07:43:05;;;;;;;18.20;8.98;;;4.10;99.90;;;;;;5158949;27;20039;-76
2022/03/18 07:45:33;;;;;;;16.58;8.70;;;4.00;99.90;;;;;;5160805;27;20134;-75
2022/03/18 07:48:02;;;;;;;17.35;8.48;;;4.10;99.90;;;;;;5141215;27;20042;-76
2022/03/18 07:50:30;;;;;;;17.40;7.95;;;4.30;99.90;;;;;;5139050;27;20047;-76
2022/03/18 07:53:00;;;;;;;16.05;8.38;;;4.40;99.90;;;;;;5156879;27;20043;-76
2022/03/18 07:55:28;;;;;;;11.00;7.22;;;4.60;99.90;;;;;;5138305;27;20414;-75
2022/03/18 07:57:55;;;;;;;19.75;7.93;;;4.70;99.90;;;;;;5138716;27;20050;-76
2022/03/18 08:00:21;;;;;;;13.52;6.78;;;4.90;99.90;;;;;;5120951;27;20102;-76
2022/03/18 08:02:49;;;;;;;14.05;6.95;;;5.10;99.90;;;;;;5156763;27;20035;-76
2022/03/18 08:05:15;;;;;;;14.77;7.38;;;5.20;99.90;;;;;;5156769;27;20083;-76
2022/03/18 08:07:41;;;;;;;11.05;6.90;;;5.30;99.90;;;;;;5156632;27;20133;-77
2022/03/18 08:10:09;;;;;;;20.05;7.80;;;5.50;99.90;;;;;;5156551;27;20050;-74
2022/03/18 08:12:37;;;;;;;16.73;6.85;;;5.60;99.90;;;;;;5156506;27;20046;-74
2022/03/18 08:15:09;;;;;;;18.15;7.88;;;5.70;99.90;;;;;;5137832;27;20050;-75
2022/03/18 08:17:34;;;;;;;19.48;8.32;;;5.90;99.90;;;;;;5156444;27;20133;-75
2022/03/18 08:20:00;;;;;;;17.55;7.78;;;6.00;99.90;;;;;;5137859;27;20121;-74
2022/03/18 08:22:26;;;;;;;18.20;8.15;;;6.10;99.90;;;;;;5156067;27;20035;-75
2022/03/18 08:24:52;;;;;;;22.40;9.07;;;6.20;99.90;;;;;;5156323;27;20043;-77
2022/03/18 08:27:19;;;;;;;16.67;8.77;;;6.30;99.90;;;;;;5137731;27;20134;-77
2022/03/18 08:29:46;;;;;;;17.43;7.67;;;6.40;99.90;;;;;;5137539;27;20049;-75
2022/03/18 08:32:14;;;;;;;20.92;8.80;;;6.50;99.90;;;;;;5155986;27;20299;-77
2022/03/18 08:34:40;;;;;;;15.65;8.05;;;6.70;99.90;;;;;;5156120;27;20043;-76
2022/03/18 08:37:06;;;;;;;18.55;9.05;;;6.80;99.90;;;;;;5155988;27;20431;-77
2022/03/18 08:39:33;;;;;;;16.37;8.13;;;7.00;99.90;;;;;;5156126;27;20050;-76
2022/03/18 08:41:59;;;;;;;18.48;8.90;;;7.10;99.90;;;;;;5155791;27;20078;-75
2022/03/18 08:44:25;;;;;;;14.73;8.27;;;7.20;99.90;;;;;;5155833;27;20076;-75
2022/03/18 08:46:50;;;;;;;15.25;8.50;;;7.30;99.90;;;;;;5155871;27;20160;-76
2022/03/18 08:49:16;;;;;;;19.00;9.52;;;7.70;99.90;;;;;;5155023;27;20088;-75
2022/03/18 08:51:42;;;;;;;21.90;10.63;;;7.60;99.90;;;;;;5155356;27;20050;-76
2022/03/18 08:54:08;;;;;;;20.67;9.77;;;7.70;99.90;;;;;;5137232;27;20038;-76
2022/03/18 08:56:34;;;;;;;21.33;10.40;;;7.80;99.90;;;;;;5137050;27;20053;-76
2022/03/18 08:59:03;;;;;;;19.35;10.50;;;8.00;99.90;;;;;;5155614;27;20512;-78
2022/03/18 09:01:29;;;;;;;22.67;11.18;;;;;;;;;;5155738;27;20046;-80
2022/03/18 09:03:54;;;;;;;18.10;10.35;;;8.20;99.90;;;;;;5155502;27;20039;-77
2022/03/18 09:06:20;;;;;;;23.02;11.00;;;8.30;99.90;;;;;;5155327;27;20509;-77
2022/03/18 09:08:46;;;;;;;16.50;9.90;;;8.40;99.90;;;;;;5155611;27;20043;-76
2022/03/18 09:11:11;;;;;;;19.70;9.23;;;8.60;99.90;;;;;;5155007;27;20490;-77
2022/03/18 09:13:37;;;;;;;24.50;10.23;;;8.70;99.90;;;;;;5155340;27;20050;-77
2022/03/18 09:16:04;;;;;;;19.20;10.73;;;8.80;99.90;;;;;;5155692;27;20126;-77
2022/03/18 09:18:30;;;;;;;18.67;10.65;;;8.80;99.90;;;;;;5155618;27;20112;-77
2022/03/18 09:20:55;;;;;;;21.27;10.02;;;8.90;99.90;;;;;;5155206;27;20547;-77
2022/03/18 09:23:21;;;;;;;19.23;10.88;;;9.00;99.90;;;;;;5155222;27;20038;-77
2022/03/18 09:25:47;;;;;;;16.88;10.43;;;9.10;99.90;;;;;;5155414;27;20043;-77
2022/03/18 09:28:12;;;;;;;23.92;10.18;;;9.20;99.90;;;;;;5155235;27;20390;-77
2022/03/18 09:30:39;;;;;;;19.48;9.68;;;9.30;99.90;;;;;;5155354;27;20107;-78
2022/03/18 09:33:04;;;;;;;19.42;9.43;;;9.50;99.90;;;;;;5119858;27;20050;-76
2022/03/18 09:35:30;;;;;;;24.30;10.63;;;9.60;99.90;;;;;;5155204;27;20042;-77
2022/03/18 09:37:56;;;;;;;18.85;9.55;;;9.60;99.90;;;;;;5155448;27;20082;-77
2022/03/18 09:40:21;;;;;;;23.55;9.73;;;9.70;99.90;;;;;;5155149;27;20054;-77
2022/03/18 09:43:04;;;;;;;22.85;9.32;;;9.90;99.90;;;;;;5154769;27;20043;-76
2022/03/18 09:45:32;;;;;;;23.23;9.40;;;10.00;99.90;;;;;;5137362;27;20078;-77
2022/03/18 09:47:59;;;;;;;19.75;8.95;;;10.20;99.90;;;;;;5155019;27;20490;-77
2022/03/18 09:50:26;;;;;;;20.77;9.20;;;10.40;99.90;;;;;;5155119;27;20035;-77
2022/03/18 09:52:52;;;;;;;20.23;9.23;;;10.50;99.90;;;;;;5136706;27;20095;-77
2022/03/18 09:55:17;;;;;;;23.58;9.05;;;10.60;99.90;;;;;;5155445;27;20046;-77
2022/03/18 09:57:43;;;;;;;14.13;8.52;;;10.70;99.90;;;;;;5157593;27;20090;-77
2022/03/18 10:00:09;;;;;;;21.42;8.85;;;10.90;99.90;;;;;;5137670;27;20078;-77
2022/03/18 10:02:35;;;;;;;23.45;9.43;;;11.10;99.90;;;;;;5158813;27;20046;-77
2022/03/18 10:05:14;;;;;;;17.42;9.63;;;11.10;99.90;;;;;;5159346;27;20047;-77
2022/03/18 10:07:52;;;;;;;21.08;9.55;;;11.20;99.90;;;;;;5123579;27;20398;-77
2022/03/18 10:10:19;;;;;;;24.63;9.65;;;11.20;99.90;;;;;;5158905;27;20137;-77
2022/03/18 10:12:47;;;;;;;19.92;8.82;;;11.30;99.90;;;;;;5158911;27;20047;-77
2022/03/18 10:15:26;;;;;;;15.40;8.68;;;11.40;99.90;;;;;;5140603;27;20054;-78
2022/03/18 10:17:57;;;;;;;25.48;8.73;;;11.50;99.90;;;;;;5158910;27;20053;-77
2022/03/18 10:20:40;;;;;;;15.20;8.27;;;11.60;99.90;;;;;;5140561;27;20423;-77
2022/03/18 10:23:15;;;;;;;25.00;10.30;;;11.60;99.90;;;;;;5158908;27;20051;-77
2022/03/18 10:25:50;;;;;;;17.85;9.57;;;11.70;99.90;;;;;;5158762;27;20119;-77
2022/03/18 10:28:18;;;;;;;15.25;8.88;;;11.90;99.90;;;;;;5158556;27;20043;-77
2022/03/18 10:30:44;;;;;;;18.73;9.75;;;11.80;99.90;;;;;;5158534;27;20121;-77
2022/03/18 10:33:09;;;;;;;22.15;10.48;;;11.90;99.90;;;;;;5158603;27;20141;-77
2022/03/18 10:38:35;;;;;;;18.83;9.35;;;11.90;99.90;;;;;;5158467;27;20046;-77
2022/03/18 10:41:07;;;;;;;16.27;8.82;;;12.00;99.90;;;;;;5158673;27;20384;-77
2022/03/18 10:43:55;;;;;;;21.70;9.15;;;12.00;99.90;;;;;;5140026;27;20091;-77
2022/03/18 10:46:22;;;;;;;21.15;8.65;;;12.10;99.90;;;;;;5158276;27;20391;-77
2022/03/18 10:49:07;;;;;;;16.65;8.75;;;12.20;99.90;;;;;;5158412;27;20038;-77
2022/03/18 10:51:37;;;;;;;16.10;8.45;;;12.30;99.90;;;;;;5158024;27;20139;-77
2022/03/18 10:54:04;;;;;;;17.35;8.48;;;12.40;99.90;;;;;;5158104;27;20122;-77
2022/03/18 10:56:54;;;;;;;18.40;8.57;;;12.40;99.90;;;;;;5158264;27;20049;-76
2022/03/18 10:59:20;;;;;;;15.52;8.27;;;12.40;99.90;;;;;;5157827;27;20515;-75
2022/03/18 11:01:51;;;;;;;20.65;8.20;;;12.50;99.90;;;;;;5157939;27;20125;-76
2022/03/18 11:04:17;;;;;;;13.63;7.95;;;12.50;99.90;;;;;;5157600;27;20087;-77
2022/03/18 11:06:43;;;;;;;19.13;9.15;;;12.60;99.90;;;;;;5158005;27;20462;-77
2022/03/18 11:09:14;;;;;;;19.25;8.57;;;12.60;99.90;;;;;;5157868;27;20125;-76
2022/03/18 11:11:41;;;;;;;16.40;8.77;;;12.70;99.90;;;;;;5157783;27;20054;-75
2022/03/18 11:14:10;;;;;;;16.48;8.48;;;12.70;99.90;;;;;;5156937;27;20039;-75
2022/03/18 11:16:38;;;;;;;19.15;8.52;;;12.80;99.90;;;;;;5157378;27;20047;-76
2022/03/18 11:19:08;;;;;;;13.88;7.03;;;13.00;99.90;;;;;;5157493;27;20061;-75
2022/03/18 11:21:35;;;;;;;16.48;6.07;;;13.00;99.90;;;;;;5157589;27;20039;-75
2022/03/18 11:24:13;;;;;;;13.90;5.93;;;13.10;99.90;;;;;;5157501;27;20043;-77
2022/03/18 11:26:58;;;;;;;16.73;8.77;;;13.30;99.90;;;;;;5157411;27;20091;-77
2022/03/18 11:29:27;;;;;;;16.77;8.32;;;13.30;99.90;;;;;;5157198;27;20042;-76
2022/03/18 11:32:17;;;;;;;16.55;8.45;;;13.40;99.90;;;;;;5157301;27;20043;-75
2022/03/18 11:34:46;;;;;;;13.30;8.00;;;13.40;99.90;;;;;;5157673;27;20054;-75
2022/03/18 11:37:12;;;;;;;16.55;7.88;;;13.40;99.90;;;;;;5157057;27;20045;-75
2022/03/18 11:39:38;;;;;;;23.35;7.97;;;13.50;99.90;;;;;;5157244;27;20043;-76
2022/03/18 11:42:12;;;;;;;12.85;6.82;;;13.50;99.90;;;;;;5157180;27;20051;-75
2022/03/18 11:44:43;;;;;;;19.05;7.60;;;13.70;99.90;;;;;;5157233;27;20046;-76
2022/03/18 11:47:30;;;;;;;15.88;7.85;;;13.70;99.90;;;;;;5156420;27;20054;-76
2022/03/18 11:50:00;;;;;;;18.25;7.88;;;13.80;99.90;;;;;;5157235;27;20047;-78
2022/03/18 11:52:26;;;;;;;15.55;7.78;;;14.00;99.90;;;;;;5156477;27;20046;-78
2022/03/18 11:54:56;;;;;;;16.25;8.05;;;14.10;99.90;;;;;;5156879;27;20043;-76
2022/03/18 11:57:34;;;;;;;16.30;7.93;;;14.20;99.90;;;;;;5156808;27;20046;-73
2022/03/18 12:00:05;;;;;;;14.85;5.90;;;14.30;99.90;;;;;;5156520;27;20508;-77
2022/03/18 12:02:36;;;;;;;12.20;5.28;;;14.40;99.90;;;;;;5156585;27;20043;-77
2022/03/18 12:05:03;;;;;;;11.45;5.30;;;14.50;99.90;;;;;;5156714;27;20047;-78
2022/03/18 12:07:44;;;;;;;14.25;5.10;;;14.60;99.90;;;;;;5156655;27;20118;-77
2022/03/18 12:10:14;;;;;;;15.50;5.82;;;14.70;99.90;;;;;;5138394;27;20107;-77
2022/03/18 12:12:41;;;;;;;11.50;5.05;;;14.70;99.90;;;;;;5156680;27;20058;-77
2022/03/18 12:15:12;;;;;;;10.93;4.55;;;14.70;99.90;;;;;;5156486;27;20042;-77
2022/03/18 12:17:42;;;;;;;12.95;4.00;;;14.70;99.90;;;;;;5156319;27;20099;-77
2022/03/18 12:20:10;;;;;;;13.90;4.85;;;14.70;99.90;;;;;;5156211;27;20050;-77
2022/03/18 12:22:40;;;;;;;12.88;4.45;;;14.70;99.90;;;;;;5156337;27;20167;-77
2022/03/18 12:25:08;;;;;;;12.07;5.15;;;14.70;99.90;;;;;;5156524;27;20050;-77
2022/03/18 12:27:36;;;;;;;12.27;4.72;;;14.70;99.90;;;;;;5156315;27;20089;-77
2022/03/18 12:30:04;;;;;;;9.40;2.80;;;14.50;99.90;;;;;;5156240;27;20479;-77
2022/03/18 12:32:30;;;;;;;9.13;2.80;;;14.20;99.90;;;;;;5156149;27;20053;-77
2022/03/18 12:34:57;;;;;;;9.27;2.60;;;14.10;99.90;;;;;;5156267;27;20466;-77
2022/03/18 12:37:32;;;;;;;8.85;2.22;;;14.20;99.90;;;;;;5156221;27;20507;-78
2022/03/18 12:40:11;;;;;;;7.78;3.05;;;14.10;99.90;;;;;;5156114;27;20049;-78
2022/03/18 12:42:58;;;;;;;9.70;3.22;;;13.90;99.90;;;;;;5155640;27;20035;-78
2022/03/18 12:45:32;;;;;;;7.55;2.30;;;14.00;99.90;;;;;;5156107;27;20191;-77
2022/03/18 12:48:06;;;;;;;6.57;2.67;;;14.10;99.90;;;;;;5156124;27;20143;-79
2022/03/18 12:50:34;;;;;;;7.65;2.88;;;14.20;99.90;;;;;;5156461;27;20054;-78
2022/03/18 12:53:01;;;;;;;8.27;3.25;;;14.20;99.90;;;;;;5155831;27;20074;-78
2022/03/18 12:55:27;;;;;;;8.30;3.22;;;14.30;99.90;;;;;;5156318;27;20046;-78
2022/03/18 12:57:53;;;;;;;10.73;3.80;;;14.50;99.90;;;;;;5156210;27;20046;-78
2022/03/18 13:00:21;;;;;;;8.43;3.10;;;14.70;99.90;;;;;;5155786;27;20043;-78